Terminal Aerodrome Forecast
Issued by NWS

Current Version | Previous Version | Text Only | Print | Product List | Glossary Off
Versions: 1 2 3 4 5 6 7 8 9 10 11 12 13 14 15 16 17 18 19 20 21 22 23 24 25 26

053
FTUS41 KILN 252324
TAFLUK
TAF
KLUK 252324Z 2600/2624 VRB03KT P6SM SCT250
     FM260400 00000KT 4SM BR SCT250
     FM260900 00000KT 2SM BR SCT015
     FM261400 28004KT P6SM SCT040=

USA.gov is the U.S. government's official web portal to all federal, state and local government web resources and services.